sensor_id;sensor_type;location;lat;lon;timestamp;P1;P2;P0
64627;PMS5003;68467;50.960;0.314;2023-09-12T00:01:03;15;14;
64627;PMS5003;68467;50.960;0.314;2023-09-12T00:03:31;17;17;
64627;PMS5003;68467;50.960;0.314;2023-09-12T00:06:00;12;12;
64627;PMS5003;68467;50.960;0.314;2023-09-12T00:08:29;10;10;
64627;PMS5003;68467;50.960;0.314;2023-09-12T00:11:04;12;12;
64627;PMS5003;68467;50.960;0.314;2023-09-12T00:13:32;13;12;
64627;PMS5003;68467;50.960;0.314;2023-09-12T00:15:59;16;16;
64627;PMS5003;68467;50.960;0.314;2023-09-12T00:18:28;13;13;
64627;PMS5003;68467;50.960;0.314;2023-09-12T00:20:55;18;16;
64627;PMS5003;68467;50.960;0.314;2023-09-12T00:23:22;16;15;
64627;PMS5003;68467;50.960;0.314;2023-09-12T00:25:50;11;11;
64627;PMS5003;68467;50.960;0.314;2023-09-12T00:28:17;14;14;
64627;PMS5003;68467;50.960;0.314;2023-09-12T00:30:46;15;15;
64627;PMS5003;68467;50.960;0.314;2023-09-12T00:33:14;13;12;
64627;PMS5003;68467;50.960;0.314;2023-09-12T00:35:40;17;16;
64627;PMS5003;68467;50.960;0.314;2023-09-12T00:38:08;13;12;
64627;PMS5003;68467;50.960;0.314;2023-09-12T00:40:36;15;14;
64627;PMS5003;68467;50.960;0.314;2023-09-12T00:43:04;14;14;
64627;PMS5003;68467;50.960;0.314;2023-09-12T00:45:31;9;9;
64627;PMS5003;68467;50.960;0.314;2023-09-12T00:47:59;14;13;
64627;PMS5003;68467;50.960;0.314;2023-09-12T00:50:30;17;17;
64627;PMS5003;68467;50.960;0.314;2023-09-12T00:52:57;16;16;
64627;PMS5003;68467;50.960;0.314;2023-09-12T00:55:25;19;17;
64627;PMS5003;68467;50.960;0.314;2023-09-12T00:57:53;14;14;
64627;PMS5003;68467;50.960;0.314;2023-09-12T01:00:20;15;14;
64627;PMS5003;68467;50.960;0.314;2023-09-12T01:02:49;14;14;
64627;PMS5003;68467;50.960;0.314;2023-09-12T01:05:17;13;13;
64627;PMS5003;68467;50.960;0.314;2023-09-12T01:07:46;14;13;
64627;PMS5003;68467;50.960;0.314;2023-09-12T01:10:14;12;12;
64627;PMS5003;68467;50.960;0.314;2023-09-12T01:12:42;15;14;
64627;PMS5003;68467;50.960;0.314;2023-09-12T01:15:09;12;12;
64627;PMS5003;68467;50.960;0.314;2023-09-12T01:17:36;13;13;
64627;PMS5003;68467;50.960;0.314;2023-09-12T01:20:04;12;12;
64627;PMS5003;68467;50.960;0.314;2023-09-12T01:22:40;14;14;
64627;PMS5003;68467;50.960;0.314;2023-09-12T01:25:29;17;16;
64627;PMS5003;68467;50.960;0.314;2023-09-12T01:28:09;16;15;
64627;PMS5003;68467;50.960;0.314;2023-09-12T01:30:38;19;18;
64627;PMS5003;68467;50.960;0.314;2023-09-12T01:33:08;16;13;
64627;PMS5003;68467;50.960;0.314;2023-09-12T01:35:36;16;16;
64627;PMS5003;68467;50.960;0.314;2023-09-12T01:38:04;18;17;
64627;PMS5003;68467;50.960;0.314;2023-09-12T01:40:33;17;16;
64627;PMS5003;68467;50.960;0.314;2023-09-12T01:43:04;16;16;
64627;PMS5003;68467;50.960;0.314;2023-09-12T01:45:33;15;15;
64627;PMS5003;68467;50.960;0.314;2023-09-12T01:48:04;15;15;
64627;PMS5003;68467;50.960;0.314;2023-09-12T01:50:33;16;12;
64627;PMS5003;68467;50.960;0.314;2023-09-12T01:53:01;17;17;
64627;PMS5003;68467;50.960;0.314;2023-09-12T01:55:29;20;20;
64627;PMS5003;68467;50.960;0.314;2023-09-12T01:57:57;17;16;
64627;PMS5003;68467;50.960;0.314;2023-09-12T02:00:24;14;13;
64627;PMS5003;68467;50.960;0.314;2023-09-12T02:02:52;12;12;
64627;PMS5003;68467;50.960;0.314;2023-09-12T02:05:21;16;16;
64627;PMS5003;68467;50.960;0.314;2023-09-12T02:07:49;16;16;
64627;PMS5003;68467;50.960;0.314;2023-09-12T02:10:16;17;15;
64627;PMS5003;68467;50.960;0.314;2023-09-12T02:12:43;13;13;
64627;PMS5003;68467;50.960;0.314;2023-09-12T02:15:10;16;15;
64627;PMS5003;68467;50.960;0.314;2023-09-12T02:17:38;14;14;
64627;PMS5003;68467;50.960;0.314;2023-09-12T02:20:07;15;15;
64627;PMS5003;68467;50.960;0.314;2023-09-12T02:22:35;20;18;
64627;PMS5003;68467;50.960;0.314;2023-09-12T02:25:03;14;13;
64627;PMS5003;68467;50.960;0.314;2023-09-12T02:27:32;16;16;
64627;PMS5003;68467;50.960;0.314;2023-09-12T02:29:59;18;16;
64627;PMS5003;68467;50.960;0.314;2023-09-12T02:32:26;15;15;
64627;PMS5003;68467;50.960;0.314;2023-09-12T02:34:54;16;15;
64627;PMS5003;68467;50.960;0.314;2023-09-12T02:37:21;16;15;
64627;PMS5003;68467;50.960;0.314;2023-09-12T02:39:48;17;16;
64627;PMS5003;68467;50.960;0.314;2023-09-12T02:42:15;16;14;
64627;PMS5003;68467;50.960;0.314;2023-09-12T02:44:43;17;16;
64627;PMS5003;68467;50.960;0.314;2023-09-12T02:47:10;15;15;
64627;PMS5003;68467;50.960;0.314;2023-09-12T02:49:37;15;14;
64627;PMS5003;68467;50.960;0.314;2023-09-12T02:52:05;15;15;
64627;PMS5003;68467;50.960;0.314;2023-09-12T02:54:32;15;15;
64627;PMS5003;68467;50.960;0.314;2023-09-12T02:56:59;17;17;
64627;PMS5003;68467;50.960;0.314;2023-09-12T02:59:26;14;14;
64627;PMS5003;68467;50.960;0.314;2023-09-12T03:01:54;13;12;
64627;PMS5003;68467;50.960;0.314;2023-09-12T03:04:21;15;14;
64627;PMS5003;68467;50.960;0.314;2023-09-12T03:06:49;14;14;
64627;PMS5003;68467;50.960;0.314;2023-09-12T03:09:16;15;15;
64627;PMS5003;68467;50.960;0.314;2023-09-12T03:11:43;18;16;
64627;PMS5003;68467;50.960;0.314;2023-09-12T03:14:11;16;16;
64627;PMS5003;68467;50.960;0.314;2023-09-12T03:16:38;18;17;
64627;PMS5003;68467;50.960;0.314;2023-09-12T03:19:05;19;17;
64627;PMS5003;68467;50.960;0.314;2023-09-12T03:21:31;15;15;
64627;PMS5003;68467;50.960;0.314;2023-09-12T03:23:59;15;15;
64627;PMS5003;68467;50.960;0.314;2023-09-12T03:26:26;17;16;
64627;PMS5003;68467;50.960;0.314;2023-09-12T03:28:53;14;13;
64627;PMS5003;68467;50.960;0.314;2023-09-12T03:31:21;17;16;
64627;PMS5003;68467;50.960;0.314;2023-09-12T03:33:48;16;14;
64627;PMS5003;68467;50.960;0.314;2023-09-12T03:36:15;19;17;
64627;PMS5003;68467;50.960;0.314;2023-09-12T03:38:42;16;16;
64627;PMS5003;68467;50.960;0.314;2023-09-12T03:41:09;16;14;
64627;PMS5003;68467;50.960;0.314;2023-09-12T03:43:37;19;19;
64627;PMS5003;68467;50.960;0.314;2023-09-12T03:46:04;16;15;
64627;PMS5003;68467;50.960;0.314;2023-09-12T03:48:31;17;16;
64627;PMS5003;68467;50.960;0.314;2023-09-12T03:50:58;15;15;
64627;PMS5003;68467;50.960;0.314;2023-09-12T03:53:26;18;15;
64627;PMS5003;68467;50.960;0.314;2023-09-12T03:55:54;17;17;
64627;PMS5003;68467;50.960;0.314;2023-09-12T03:58:21;16;16;
64627;PMS5003;68467;50.960;0.314;2023-09-12T04:00:49;18;17;
64627;PMS5003;68467;50.960;0.314;2023-09-12T04:03:16;18;18;
64627;PMS5003;68467;50.960;0.314;2023-09-12T04:05:46;15;15;
64627;PMS5003;68467;50.960;0.314;2023-09-12T04:08:13;18;16;
64627;PMS5003;68467;50.960;0.314;2023-09-12T04:10:40;19;19;
64627;PMS5003;68467;50.960;0.314;2023-09-12T04:13:07;22;21;
64627;PMS5003;68467;50.960;0.314;2023-09-12T04:15:34;19;18;
64627;PMS5003;68467;50.960;0.314;2023-09-12T04:18:01;17;16;
64627;PMS5003;68467;50.960;0.314;2023-09-12T04:20:29;18;18;
64627;PMS5003;68467;50.960;0.314;2023-09-12T04:22:57;21;20;
64627;PMS5003;68467;50.960;0.314;2023-09-12T04:25:26;18;17;
64627;PMS5003;68467;50.960;0.314;2023-09-12T04:27:54;18;16;
64627;PMS5003;68467;50.960;0.314;2023-09-12T04:30:21;17;17;
64627;PMS5003;68467;50.960;0.314;2023-09-12T04:32:48;16;16;
64627;PMS5003;68467;50.960;0.314;2023-09-12T04:35:15;17;16;
64627;PMS5003;68467;50.960;0.314;2023-09-12T04:37:42;14;14;
64627;PMS5003;68467;50.960;0.314;2023-09-12T04:40:10;17;17;
64627;PMS5003;68467;50.960;0.314;2023-09-12T04:42:37;19;17;
64627;PMS5003;68467;50.960;0.314;2023-09-12T04:45:05;18;17;
64627;PMS5003;68467;50.960;0.314;2023-09-12T04:47:33;17;16;
64627;PMS5003;68467;50.960;0.314;2023-09-12T04:50:00;18;17;
64627;PMS5003;68467;50.960;0.314;2023-09-12T04:52:28;15;15;
64627;PMS5003;68467;50.960;0.314;2023-09-12T04:54:55;19;19;
64627;PMS5003;68467;50.960;0.314;2023-09-12T04:57:22;19;19;
64627;PMS5003;68467;50.960;0.314;2023-09-12T04:59:50;17;16;
64627;PMS5003;68467;50.960;0.314;2023-09-12T05:02:17;23;21;
64627;PMS5003;68467;50.960;0.314;2023-09-12T05:04:45;15;15;
64627;PMS5003;68467;50.960;0.314;2023-09-12T05:07:12;15;15;
64627;PMS5003;68467;50.960;0.314;2023-09-12T05:09:39;14;14;
64627;PMS5003;68467;50.960;0.314;2023-09-12T05:12:06;16;15;
64627;PMS5003;68467;50.960;0.314;2023-09-12T05:14:34;18;14;
64627;PMS5003;68467;50.960;0.314;2023-09-12T05:17:00;16;16;
64627;PMS5003;68467;50.960;0.314;2023-09-12T05:19:29;16;15;
64627;PMS5003;68467;50.960;0.314;2023-09-12T05:21:56;16;15;
64627;PMS5003;68467;50.960;0.314;2023-09-12T05:24:23;21;20;
64627;PMS5003;68467;50.960;0.314;2023-09-12T05:26:51;21;18;
64627;PMS5003;68467;50.960;0.314;2023-09-12T05:29:17;18;16;
64627;PMS5003;68467;50.960;0.314;2023-09-12T05:31:44;17;17;
64627;PMS5003;68467;50.960;0.314;2023-09-12T05:34:12;19;18;
64627;PMS5003;68467;50.960;0.314;2023-09-12T05:36:39;22;20;
64627;PMS5003;68467;50.960;0.314;2023-09-12T05:39:06;20;18;
64627;PMS5003;68467;50.960;0.314;2023-09-12T05:41:33;19;17;
64627;PMS5003;68467;50.960;0.314;2023-09-12T05:44:00;20;20;
64627;PMS5003;68467;50.960;0.314;2023-09-12T05:46:27;23;21;
64627;PMS5003;68467;50.960;0.314;2023-09-12T05:48:55;22;20;
64627;PMS5003;68467;50.960;0.314;2023-09-12T05:51:22;20;20;
64627;PMS5003;68467;50.960;0.314;2023-09-12T05:53:49;21;19;
64627;PMS5003;68467;50.960;0.314;2023-09-12T05:56:17;18;17;
64627;PMS5003;68467;50.960;0.314;2023-09-12T05:58:44;18;18;
64627;PMS5003;68467;50.960;0.314;2023-09-12T06:01:12;19;18;
64627;PMS5003;68467;50.960;0.314;2023-09-12T06:03:40;20;17;
64627;PMS5003;68467;50.960;0.314;2023-09-12T06:06:08;15;15;
64627;PMS5003;68467;50.960;0.314;2023-09-12T06:08:35;15;15;
64627;PMS5003;68467;50.960;0.314;2023-09-12T06:11:02;14;14;
64627;PMS5003;68467;50.960;0.314;2023-09-12T06:13:29;15;14;
64627;PMS5003;68467;50.960;0.314;2023-09-12T06:15:56;19;18;
64627;PMS5003;68467;50.960;0.314;2023-09-12T06:18:24;19;18;
64627;PMS5003;68467;50.960;0.314;2023-09-12T06:20:51;19;19;
64627;PMS5003;68467;50.960;0.314;2023-09-12T06:23:18;17;15;
64627;PMS5003;68467;50.960;0.314;2023-09-12T06:25:46;20;16;
64627;PMS5003;68467;50.960;0.314;2023-09-12T06:28:13;18;17;
64627;PMS5003;68467;50.960;0.314;2023-09-12T06:30:52;23;21;
64627;PMS5003;68467;50.960;0.314;2023-09-12T06:33:19;21;20;
64627;PMS5003;68467;50.960;0.314;2023-09-12T06:35:47;20;16;
64627;PMS5003;68467;50.960;0.314;2023-09-12T06:38:15;25;23;
64627;PMS5003;68467;50.960;0.314;2023-09-12T06:40:43;18;18;
64627;PMS5003;68467;50.960;0.314;2023-09-12T06:43:10;19;18;
64627;PMS5003;68467;50.960;0.314;2023-09-12T06:45:37;17;16;
64627;PMS5003;68467;50.960;0.314;2023-09-12T06:48:07;16;16;
64627;PMS5003;68467;50.960;0.314;2023-09-12T06:50:34;22;21;
64627;PMS5003;68467;50.960;0.314;2023-09-12T06:53:02;20;20;
64627;PMS5003;68467;50.960;0.314;2023-09-12T06:55:30;24;21;
64627;PMS5003;68467;50.960;0.314;2023-09-12T06:57:57;20;19;
64627;PMS5003;68467;50.960;0.314;2023-09-12T07:00:24;20;19;
64627;PMS5003;68467;50.960;0.314;2023-09-12T07:02:51;20;17;
64627;PMS5003;68467;50.960;0.314;2023-09-12T07:05:19;16;16;
64627;PMS5003;68467;50.960;0.314;2023-09-12T07:07:46;18;17;
64627;PMS5003;68467;50.960;0.314;2023-09-12T07:10:14;14;12;
64627;PMS5003;68467;50.960;0.314;2023-09-12T07:12:41;13;13;
64627;PMS5003;68467;50.960;0.314;2023-09-12T07:15:08;19;17;
64627;PMS5003;68467;50.960;0.314;2023-09-12T07:17:36;13;13;
64627;PMS5003;68467;50.960;0.314;2023-09-12T07:20:04;15;13;
64627;PMS5003;68467;50.960;0.314;2023-09-12T07:22:32;13;12;
64627;PMS5003;68467;50.960;0.314;2023-09-12T07:25:00;17;17;
64627;PMS5003;68467;50.960;0.314;2023-09-12T07:27:28;15;14;
64627;PMS5003;68467;50.960;0.314;2023-09-12T07:29:55;15;14;
64627;PMS5003;68467;50.960;0.314;2023-09-12T07:32:22;18;18;
64627;PMS5003;68467;50.960;0.314;2023-09-12T07:34:49;20;19;
64627;PMS5003;68467;50.960;0.314;2023-09-12T07:37:17;21;20;
64627;PMS5003;68467;50.960;0.314;2023-09-12T07:39:44;16;15;
64627;PMS5003;68467;50.960;0.314;2023-09-12T07:42:11;15;14;
64627;PMS5003;68467;50.960;0.314;2023-09-12T07:44:39;14;14;
64627;PMS5003;68467;50.960;0.314;2023-09-12T07:47:07;20;20;
64627;PMS5003;68467;50.960;0.314;2023-09-12T07:49:34;20;18;
64627;PMS5003;68467;50.960;0.314;2023-09-12T07:52:01;18;18;
64627;PMS5003;68467;50.960;0.314;2023-09-12T07:54:28;21;21;
64627;PMS5003;68467;50.960;0.314;2023-09-12T07:56:56;17;16;
64627;PMS5003;68467;50.960;0.314;2023-09-12T07:59:24;18;18;
64627;PMS5003;68467;50.960;0.314;2023-09-12T08:01:51;17;16;
64627;PMS5003;68467;50.960;0.314;2023-09-12T08:04:19;18;18;
64627;PMS5003;68467;50.960;0.314;2023-09-12T08:06:46;16;16;
64627;PMS5003;68467;50.960;0.314;2023-09-12T08:09:13;17;16;
64627;PMS5003;68467;50.960;0.314;2023-09-12T08:11:41;19;18;
64627;PMS5003;68467;50.960;0.314;2023-09-12T08:14:08;17;16;
64627;PMS5003;68467;50.960;0.314;2023-09-12T08:16:35;17;17;
64627;PMS5003;68467;50.960;0.314;2023-09-12T08:19:02;18;18;
64627;PMS5003;68467;50.960;0.314;2023-09-12T08:21:29;23;20;
64627;PMS5003;68467;50.960;0.314;2023-09-12T08:23:56;23;22;
64627;PMS5003;68467;50.960;0.314;2023-09-12T08:26:24;18;17;
64627;PMS5003;68467;50.960;0.314;2023-09-12T08:28:51;19;19;
64627;PMS5003;68467;50.960;0.314;2023-09-12T08:31:18;18;17;
64627;PMS5003;68467;50.960;0.314;2023-09-12T08:33:45;12;12;
64627;PMS5003;68467;50.960;0.314;2023-09-12T08:36:13;15;14;
64627;PMS5003;68467;50.960;0.314;2023-09-12T08:38:41;17;16;
64627;PMS5003;68467;50.960;0.314;2023-09-12T08:41:08;16;15;
64627;PMS5003;68467;50.960;0.314;2023-09-12T08:43:35;15;14;
64627;PMS5003;68467;50.960;0.314;2023-09-12T08:46:03;16;16;
64627;PMS5003;68467;50.960;0.314;2023-09-12T08:48:32;18;17;
64627;PMS5003;68467;50.960;0.314;2023-09-12T08:51:00;19;18;
64627;PMS5003;68467;50.960;0.314;2023-09-12T08:53:35;18;18;
64627;PMS5003;68467;50.960;0.314;2023-09-12T08:56:02;16;15;
64627;PMS5003;68467;50.960;0.314;2023-09-12T08:58:30;12;12;
64627;PMS5003;68467;50.960;0.314;2023-09-12T09:01:00;16;15;
64627;PMS5003;68467;50.960;0.314;2023-09-12T09:03:28;14;14;
64627;PMS5003;68467;50.960;0.314;2023-09-12T09:05:56;13;13;
64627;PMS5003;68467;50.960;0.314;2023-09-12T09:08:25;13;13;
64627;PMS5003;68467;50.960;0.314;2023-09-12T09:10:54;16;16;
64627;PMS5003;68467;50.960;0.314;2023-09-12T09:13:23;15;14;
64627;PMS5003;68467;50.960;0.314;2023-09-12T09:15:53;14;13;
64627;PMS5003;68467;50.960;0.314;2023-09-12T09:18:49;15;14;
64627;PMS5003;68467;50.960;0.314;2023-09-12T09:21:17;11;11;
64627;PMS5003;68467;50.960;0.314;2023-09-12T09:23:46;10;10;
64627;PMS5003;68467;50.960;0.314;2023-09-12T09:26:13;11;11;
64627;PMS5003;68467;50.960;0.314;2023-09-12T09:28:40;12;12;
64627;PMS5003;68467;50.960;0.314;2023-09-12T09:31:09;9;8;
64627;PMS5003;68467;50.960;0.314;2023-09-12T09:33:38;9;7;
64627;PMS5003;68467;50.960;0.314;2023-09-12T09:36:07;7;7;
64627;PMS5003;68467;50.960;0.314;2023-09-12T09:38:34;9;8;
64627;PMS5003;68467;50.960;0.314;2023-09-12T09:41:04;10;9;
64627;PMS5003;68467;50.960;0.314;2023-09-12T09:43:32;9;9;
64627;PMS5003;68467;50.960;0.314;2023-09-12T09:46:00;8;8;
64627;PMS5003;68467;50.960;0.314;2023-09-12T09:48:27;6;6;
64627;PMS5003;68467;50.960;0.314;2023-09-12T09:51:00;5;5;
64627;PMS5003;68467;50.960;0.314;2023-09-12T09:53:28;8;8;
64627;PMS5003;68467;50.960;0.314;2023-09-12T09:56:07;6;5;
64627;PMS5003;68467;50.960;0.314;2023-09-12T09:58:35;4;4;
64627;PMS5003;68467;50.960;0.314;2023-09-12T10:01:02;4;4;
64627;PMS5003;68467;50.960;0.314;2023-09-12T10:03:33;8;8;
64627;PMS5003;68467;50.960;0.314;2023-09-12T10:06:04;9;9;
64627;PMS5003;68467;50.960;0.314;2023-09-12T10:08:32;13;13;
64627;PMS5003;68467;50.960;0.314;2023-09-12T10:11:02;7;6;
64627;PMS5003;68467;50.960;0.314;2023-09-12T10:13:30;6;6;
64627;PMS5003;68467;50.960;0.314;2023-09-12T10:16:00;4;4;
64627;PMS5003;68467;50.960;0.314;2023-09-12T10:18:27;7;7;
64627;PMS5003;68467;50.960;0.314;2023-09-12T10:21:03;6;6;
64627;PMS5003;68467;50.960;0.314;2023-09-12T10:23:38;5;5;
64627;PMS5003;68467;50.960;0.314;2023-09-12T10:26:09;4;4;
64627;PMS5003;68467;50.960;0.314;2023-09-12T10:28:39;5;5;
64627;PMS5003;68467;50.960;0.314;2023-09-12T10:31:08;4;4;
64627;PMS5003;68467;50.960;0.314;2023-09-12T10:33:38;5;5;
64627;PMS5003;68467;50.960;0.314;2023-09-12T10:36:06;4;4;
64627;PMS5003;68467;50.960;0.314;2023-09-12T10:38:36;5;5;
64627;PMS5003;68467;50.960;0.314;2023-09-12T10:41:09;6;6;
64627;PMS5003;68467;50.960;0.314;2023-09-12T10:43:38;5;5;
64627;PMS5003;68467;50.960;0.314;2023-09-12T10:46:05;5;5;
64627;PMS5003;68467;50.960;0.314;2023-09-12T10:48:32;5;5;
64627;PMS5003;68467;50.960;0.314;2023-09-12T10:51:01;6;6;
64627;PMS5003;68467;50.960;0.314;2023-09-12T10:53:30;4;4;
64627;PMS5003;68467;50.960;0.314;2023-09-12T10:55:58;5;5;
64627;PMS5003;68467;50.960;0.314;2023-09-12T10:58:26;6;6;
64627;PMS5003;68467;50.960;0.314;2023-09-12T11:01:26;4;4;
64627;PMS5003;68467;50.960;0.314;2023-09-12T11:03:54;4;4;
64627;PMS5003;68467;50.960;0.314;2023-09-12T11:06:22;6;6;
64627;PMS5003;68467;50.960;0.314;2023-09-12T11:09:15;6;6;
64627;PMS5003;68467;50.960;0.314;2023-09-12T11:11:43;5;5;
64627;PMS5003;68467;50.960;0.314;2023-09-12T11:14:12;4;3;
64627;PMS5003;68467;50.960;0.314;2023-09-12T11:16:41;4;4;
64627;PMS5003;68467;50.960;0.314;2023-09-12T11:19:12;4;4;
64627;PMS5003;68467;50.960;0.314;2023-09-12T11:21:40;4;4;
64627;PMS5003;68467;50.960;0.314;2023-09-12T11:24:09;6;6;
64627;PMS5003;68467;50.960;0.314;2023-09-12T11:26:51;7;6;
64627;PMS5003;68467;50.960;0.314;2023-09-12T11:29:20;6;5;
64627;PMS5003;68467;50.960;0.314;2023-09-12T11:31:53;3;3;
64627;PMS5003;68467;50.960;0.314;2023-09-12T11:34:21;5;5;
64627;PMS5003;68467;50.960;0.314;2023-09-12T11:36:51;5;5;
64627;PMS5003;68467;50.960;0.314;2023-09-12T11:39:23;5;5;
64627;PMS5003;68467;50.960;0.314;2023-09-12T11:41:51;4;3;
64627;PMS5003;68467;50.960;0.314;2023-09-12T11:44:19;6;5;
64627;PMS5003;68467;50.960;0.314;2023-09-12T11:46:48;6;5;
64627;PMS5003;68467;50.960;0.314;2023-09-12T11:49:16;3;3;
64627;PMS5003;68467;50.960;0.314;2023-09-12T11:51:46;3;3;
64627;PMS5003;68467;50.960;0.314;2023-09-12T11:54:15;4;4;
64627;PMS5003;68467;50.960;0.314;2023-09-12T11:56:44;4;4;
64627;PMS5003;68467;50.960;0.314;2023-09-12T11:59:13;3;3;
64627;PMS5003;68467;50.960;0.314;2023-09-12T12:01:40;4;4;
64627;PMS5003;68467;50.960;0.314;2023-09-12T12:04:07;2;2;
64627;PMS5003;68467;50.960;0.314;2023-09-12T12:06:36;2;2;
64627;PMS5003;68467;50.960;0.314;2023-09-12T12:09:03;3;3;
64627;PMS5003;68467;50.960;0.314;2023-09-12T12:11:30;3;3;
64627;PMS5003;68467;50.960;0.314;2023-09-12T12:13:57;3;3;
64627;PMS5003;68467;50.960;0.314;2023-09-12T12:16:34;3;3;
64627;PMS5003;68467;50.960;0.314;2023-09-12T12:19:01;3;2;
64627;PMS5003;68467;50.960;0.314;2023-09-12T12:21:29;1;1;
64627;PMS5003;68467;50.960;0.314;2023-09-12T12:23:57;2;2;
64627;PMS5003;68467;50.960;0.314;2023-09-12T12:26:26;4;4;
64627;PMS5003;68467;50.960;0.314;2023-09-12T12:28:54;4;4;
64627;PMS5003;68467;50.960;0.314;2023-09-12T12:31:21;2;2;
64627;PMS5003;68467;50.960;0.314;2023-09-12T12:33:49;3;3;
64627;PMS5003;68467;50.960;0.314;2023-09-12T12:36:16;3;3;
64627;PMS5003;68467;50.960;0.314;2023-09-12T12:38:43;4;4;
64627;PMS5003;68467;50.960;0.314;2023-09-12T12:41:13;5;5;
64627;PMS5003;68467;50.960;0.314;2023-09-12T12:43:40;3;3;
64627;PMS5003;68467;50.960;0.314;2023-09-12T12:46:10;3;3;
64627;PMS5003;68467;50.960;0.314;2023-09-12T12:48:39;6;5;
64627;PMS5003;68467;50.960;0.314;2023-09-12T12:51:13;4;4;
64627;PMS5003;68467;50.960;0.314;2023-09-12T12:53:42;4;4;
64627;PMS5003;68467;50.960;0.314;2023-09-12T12:56:12;4;4;
64627;PMS5003;68467;50.960;0.314;2023-09-12T12:58:45;4;3;
64627;PMS5003;68467;50.960;0.314;2023-09-12T13:01:14;2;2;
64627;PMS5003;68467;50.960;0.314;2023-09-12T13:03:42;4;4;
64627;PMS5003;68467;50.960;0.314;2023-09-12T13:06:10;6;6;
64627;PMS5003;68467;50.960;0.314;2023-09-12T13:08:39;5;5;
64627;PMS5003;68467;50.960;0.314;2023-09-12T13:11:06;6;6;
64627;PMS5003;68467;50.960;0.314;2023-09-12T13:13:34;4;3;
64627;PMS5003;68467;50.960;0.314;2023-09-12T13:16:02;7;7;
64627;PMS5003;68467;50.960;0.314;2023-09-12T13:18:29;8;7;
64627;PMS5003;68467;50.960;0.314;2023-09-12T13:20:57;6;6;
64627;PMS5003;68467;50.960;0.314;2023-09-12T13:23:25;7;6;
64627;PMS5003;68467;50.960;0.314;2023-09-12T13:25:53;5;5;
64627;PMS5003;68467;50.960;0.314;2023-09-12T13:28:20;4;4;
64627;PMS5003;68467;50.960;0.314;2023-09-12T13:30:48;4;4;
64627;PMS5003;68467;50.960;0.314;2023-09-12T13:33:15;5;5;
64627;PMS5003;68467;50.960;0.314;2023-09-12T13:35:42;5;5;
64627;PMS5003;68467;50.960;0.314;2023-09-12T13:38:09;4;4;
64627;PMS5003;68467;50.960;0.314;2023-09-12T13:40:36;4;4;
64627;PMS5003;68467;50.960;0.314;2023-09-12T13:43:05;5;4;
64627;PMS5003;68467;50.960;0.314;2023-09-12T13:45:32;6;5;
64627;PMS5003;68467;50.960;0.314;2023-09-12T13:48:00;4;4;
64627;PMS5003;68467;50.960;0.314;2023-09-12T13:50:27;9;9;
64627;PMS5003;68467;50.960;0.314;2023-09-12T13:52:54;9;8;
64627;PMS5003;68467;50.960;0.314;2023-09-12T13:55:22;9;9;
64627;PMS5003;68467;50.960;0.314;2023-09-12T13:57:50;8;8;
64627;PMS5003;68467;50.960;0.314;2023-09-12T14:00:17;10;9;
64627;PMS5003;68467;50.960;0.314;2023-09-12T14:02:44;10;10;
64627;PMS5003;68467;50.960;0.314;2023-09-12T14:05:12;9;9;
64627;PMS5003;68467;50.960;0.314;2023-09-12T14:07:39;12;12;
64627;PMS5003;68467;50.960;0.314;2023-09-12T14:10:07;12;12;
64627;PMS5003;68467;50.960;0.314;2023-09-12T14:12:34;13;12;
64627;PMS5003;68467;50.960;0.314;2023-09-12T14:15:01;10;10;
64627;PMS5003;68467;50.960;0.314;2023-09-12T14:17:29;6;6;
64627;PMS5003;68467;50.960;0.314;2023-09-12T14:19:56;8;8;
64627;PMS5003;68467;50.960;0.314;2023-09-12T14:22:23;6;6;
64627;PMS5003;68467;50.960;0.314;2023-09-12T14:24:51;7;7;
64627;PMS5003;68467;50.960;0.314;2023-09-12T14:27:18;7;7;
64627;PMS5003;68467;50.960;0.314;2023-09-12T14:29:45;5;5;
64627;PMS5003;68467;50.960;0.314;2023-09-12T14:32:12;6;6;
64627;PMS5003;68467;50.960;0.314;2023-09-12T14:34:39;6;5;
64627;PMS5003;68467;50.960;0.314;2023-09-12T14:37:06;6;6;
64627;PMS5003;68467;50.960;0.314;2023-09-12T14:39:33;5;5;
64627;PMS5003;68467;50.960;0.314;2023-09-12T14:42:00;6;6;
64627;PMS5003;68467;50.960;0.314;2023-09-12T14:44:27;4;4;
64627;PMS5003;68467;50.960;0.314;2023-09-12T14:46:54;6;5;
64627;PMS5003;68467;50.960;0.314;2023-09-12T14:49:22;5;5;
64627;PMS5003;68467;50.960;0.314;2023-09-12T14:51:48;3;3;
64627;PMS5003;68467;50.960;0.314;2023-09-12T14:54:16;4;4;
64627;PMS5003;68467;50.960;0.314;2023-09-12T14:56:44;4;4;
64627;PMS5003;68467;50.960;0.314;2023-09-12T14:59:12;4;4;
64627;PMS5003;68467;50.960;0.314;2023-09-12T15:01:39;3;3;
64627;PMS5003;68467;50.960;0.314;2023-09-12T15:04:05;4;4;
64627;PMS5003;68467;50.960;0.314;2023-09-12T15:06:32;2;2;
64627;PMS5003;68467;50.960;0.314;2023-09-12T15:08:59;3;3;
64627;PMS5003;68467;50.960;0.314;2023-09-12T15:11:26;2;2;
64627;PMS5003;68467;50.960;0.314;2023-09-12T15:13:53;5;5;
64627;PMS5003;68467;50.960;0.314;2023-09-12T15:16:20;3;3;
64627;PMS5003;68467;50.960;0.314;2023-09-12T15:18:47;4;4;
64627;PMS5003;68467;50.960;0.314;2023-09-12T15:21:13;4;3;
64627;PMS5003;68467;50.960;0.314;2023-09-12T15:23:40;4;4;
64627;PMS5003;68467;50.960;0.314;2023-09-12T15:26:08;5;5;
64627;PMS5003;68467;50.960;0.314;2023-09-12T15:28:35;4;4;
64627;PMS5003;68467;50.960;0.314;2023-09-12T15:31:02;4;4;
64627;PMS5003;68467;50.960;0.314;2023-09-12T15:33:29;4;4;
64627;PMS5003;68467;50.960;0.314;2023-09-12T15:35:56;5;5;
64627;PMS5003;68467;50.960;0.314;2023-09-12T15:38:23;4;4;
64627;PMS5003;68467;50.960;0.314;2023-09-12T15:40:51;5;5;
64627;PMS5003;68467;50.960;0.314;2023-09-12T15:43:18;5;5;
64627;PMS5003;68467;50.960;0.314;2023-09-12T15:45:46;6;5;
64627;PMS5003;68467;50.960;0.314;2023-09-12T15:48:13;7;7;
64627;PMS5003;68467;50.960;0.314;2023-09-12T15:50:40;7;7;
64627;PMS5003;68467;50.960;0.314;2023-09-12T15:53:08;8;8;
64627;PMS5003;68467;50.960;0.314;2023-09-12T15:55:35;9;8;
64627;PMS5003;68467;50.960;0.314;2023-09-12T15:58:02;10;9;
64627;PMS5003;68467;50.960;0.314;2023-09-12T16:00:29;11;11;
64627;PMS5003;68467;50.960;0.314;2023-09-12T16:02:56;10;10;
64627;PMS5003;68467;50.960;0.314;2023-09-12T16:05:24;12;11;
64627;PMS5003;68467;50.960;0.314;2023-09-12T16:07:52;9;8;
64627;PMS5003;68467;50.960;0.314;2023-09-12T16:10:19;8;8;
64627;PMS5003;68467;50.960;0.314;2023-09-12T16:12:46;7;7;
64627;PMS5003;68467;50.960;0.314;2023-09-12T16:15:13;10;9;
64627;PMS5003;68467;50.960;0.314;2023-09-12T16:17:40;7;7;
64627;PMS5003;68467;50.960;0.314;2023-09-12T16:20:09;7;6;
64627;PMS5003;68467;50.960;0.314;2023-09-12T16:22:42;6;6;
64627;PMS5003;68467;50.960;0.314;2023-09-12T16:25:09;7;7;
64627;PMS5003;68467;50.960;0.314;2023-09-12T16:27:36;5;5;
64627;PMS5003;68467;50.960;0.314;2023-09-12T16:30:04;7;5;
64627;PMS5003;68467;50.960;0.314;2023-09-12T16:32:32;7;6;
64627;PMS5003;68467;50.960;0.314;2023-09-12T16:35:00;6;6;
64627;PMS5003;68467;50.960;0.314;2023-09-12T16:37:28;6;6;